Terminal Aerodrome Forecast
Issued by NWS

Current Version | Previous Version | Graphics & Text | Print | Product List | Glossary On
Versions: 1 2 3 4 5 6 7 8 9 10 11 12 13 14 15 16
637
FTUS41 KPBZ 231720
TAFHLG
TAF
KHLG 231720Z 2318/2418 15004KT P6SM SCT040
     FM240500 00000KT 5SM BR SKC
     FM240800 00000KT 3SM BR SKC
     FM241300 17004KT P6SM FEW050=

USA.gov is the U.S. government's official web portal to all federal, state and local government web resources and services.